createdAt,value
2023-05-15T00:02:13.076Z,15.93
2023-05-15T00:04:40.080Z,16.17
2023-05-15T00:07:07.036Z,22.33
2023-05-15T00:09:33.709Z,19.63
2023-05-15T00:12:00.673Z,19.30
2023-05-15T00:14:27.327Z,22.08
2023-05-15T00:16:54.157Z,25.10
2023-05-15T00:19:21.127Z,23.23
2023-05-15T00:21:48.090Z,26.63
2023-05-15T00:24:14.886Z,23.23
2023-05-15T00:26:41.745Z,23.33
2023-05-15T00:29:08.489Z,21.70
2023-05-15T00:31:35.302Z,39.08
2023-05-15T00:34:02.156Z,17.42
2023-05-15T00:36:29.057Z,20.27
2023-05-15T00:38:55.863Z,17.80
2023-05-15T00:41:23.404Z,25.33
2023-05-15T00:43:52.346Z,18.30
2023-05-15T00:46:21.108Z,17.48
2023-05-15T00:48:50.196Z,39.47
2023-05-15T00:51:17.531Z,20.42
2023-05-15T00:53:44.892Z,28.27
2023-05-15T00:56:12.967Z,25.23
2023-05-15T00:58:40.065Z,22.45
2023-05-15T01:01:08.400Z,25.33
2023-05-15T01:03:36.137Z,43.50
2023-05-15T01:06:07.224Z,22.40
2023-05-15T01:08:47.148Z,28.08
2023-05-15T01:11:15.943Z,26.52
2023-05-15T01:13:43.329Z,31.05
2023-05-15T01:16:10.827Z,33.88
2023-05-15T01:18:37.806Z,27.42
2023-05-15T01:21:10.658Z,23.70
2023-05-15T01:23:46.553Z,23.33
2023-05-15T01:26:45.733Z,27.73
2023-05-15T01:29:15.047Z,27.70
2023-05-15T01:31:44.477Z,27.52
2023-05-15T01:34:11.472Z,24.23
2023-05-15T01:36:53.662Z,16.77
2023-05-15T01:39:26.282Z,28.70
2023-05-15T01:42:02.778Z,31.05
2023-05-15T01:44:32.470Z,43.70
2023-05-15T01:47:02.020Z,46.22
2023-05-15T01:49:30.953Z,54.45
2023-05-15T01:52:05.210Z,58.88
2023-05-15T01:54:33.769Z,46.05
2023-05-15T01:57:00.759Z,55.83
2023-05-15T01:59:29.173Z,35.85
2023-05-15T02:01:57.866Z,57.40
2023-05-15T02:04:26.333Z,35.97
2023-05-15T02:06:53.769Z,42.90
2023-05-15T02:09:21.950Z,35.67
2023-05-15T02:11:49.132Z,42.13
2023-05-15T02:14:17.479Z,61.92
2023-05-15T02:16:44.453Z,36.38
2023-05-15T02:19:11.324Z,45.00
2023-05-15T02:21:38.083Z,54.97
2023-05-15T02:24:05.015Z,59.97
2023-05-15T02:27:13.246Z,67.10
2023-05-15T02:30:17.713Z,74.97
2023-05-15T02:33:03.045Z,58.00
2023-05-15T02:35:34.017Z,47.50
2023-05-15T02:38:07.805Z,43.88
2023-05-15T02:40:36.545Z,47.42
2023-05-15T02:43:04.355Z,54.20
2023-05-15T02:45:32.518Z,48.60
2023-05-15T02:48:00.266Z,39.72
2023-05-15T02:50:27.185Z,44.10
2023-05-15T02:53:05.425Z,45.25
2023-05-15T02:55:32.261Z,54.65
2023-05-15T02:57:59.314Z,48.90
2023-05-15T03:00:26.725Z,52.40
2023-05-15T03:02:53.632Z,66.20
2023-05-15T03:05:21.079Z,51.88
2023-05-15T03:07:47.922Z,54.15
2023-05-15T03:10:14.709Z,62.00
2023-05-15T03:12:41.438Z,54.92
2023-05-15T03:15:08.608Z,51.50
2023-05-15T03:17:35.429Z,50.88
2023-05-15T03:20:02.493Z,59.25
2023-05-15T03:22:29.156Z,50.85
2023-05-15T03:24:56.097Z,40.38
2023-05-15T03:27:23.002Z,48.42
2023-05-15T03:29:51.026Z,52.45
2023-05-15T03:32:18.029Z,49.67
2023-05-15T03:34:45.044Z,50.40
2023-05-15T03:37:11.777Z,47.83
2023-05-15T03:39:38.680Z,52.78
2023-05-15T03:42:05.603Z,46.75
2023-05-15T03:44:32.377Z,46.00
2023-05-15T03:46:59.240Z,50.50
2023-05-15T03:49:26.262Z,44.75
2023-05-15T03:51:53.183Z,40.38
2023-05-15T03:54:20.071Z,37.70
2023-05-15T03:56:46.879Z,43.20
2023-05-15T03:59:13.480Z,42.88
2023-05-15T04:01:55.349Z,41.13
2023-05-15T04:04:26.966Z,41.05
2023-05-15T04:06:53.684Z,43.40
2023-05-15T04:09:20.502Z,43.53
2023-05-15T04:11:47.491Z,44.60
2023-05-15T04:14:14.192Z,45.13
2023-05-15T04:16:40.952Z,47.30
2023-05-15T04:19:07.937Z,41.13
2023-05-15T04:21:34.904Z,39.53
2023-05-15T04:24:01.876Z,39.47
2023-05-15T04:26:28.849Z,40.95
2023-05-15T04:29:03.846Z,43.60
2023-05-15T04:31:31.825Z,39.30
2023-05-15T04:33:58.781Z,38.72
2023-05-15T04:36:25.854Z,42.47
2023-05-15T04:38:52.775Z,36.38
2023-05-15T04:41:19.604Z,47.88
2023-05-15T04:43:46.936Z,53.28
2023-05-15T04:46:13.698Z,47.00
2023-05-15T04:48:40.617Z,34.63
2023-05-15T04:51:07.794Z,52.22
2023-05-15T04:53:34.708Z,44.75
2023-05-15T04:56:01.628Z,50.97
2023-05-15T04:58:28.837Z,38.40
2023-05-15T05:00:55.558Z,39.95
2023-05-15T05:03:22.754Z,37.03
2023-05-15T05:05:49.696Z,37.08
2023-05-15T05:08:16.408Z,44.50
2023-05-15T05:10:43.044Z,54.63
2023-05-15T05:13:09.727Z,41.28
2023-05-15T05:15:37.335Z,53.83
2023-05-15T05:18:04.504Z,57.55
2023-05-15T05:20:31.264Z,69.43
2023-05-15T05:22:57.912Z,65.55
2023-05-15T05:25:25.055Z,59.80
2023-05-15T05:27:52.042Z,52.60
2023-05-15T05:30:18.981Z,68.07
2023-05-15T05:32:46.181Z,65.43
2023-05-15T05:35:13.729Z,67.70
2023-05-15T05:37:41.390Z,53.90
2023-05-15T05:40:09.046Z,51.17
2023-05-15T05:42:36.001Z,45.75
2023-05-15T05:45:02.935Z,57.13
2023-05-15T05:47:29.734Z,52.70
2023-05-15T05:49:56.673Z,42.20
2023-05-15T05:52:23.387Z,72.47
2023-05-15T05:54:56.542Z,72.22
2023-05-15T05:57:23.272Z,68.65
2023-05-15T05:59:50.026Z,54.97
2023-05-15T06:02:16.822Z,56.20
2023-05-15T06:04:43.566Z,64.43
2023-05-15T06:07:10.525Z,63.85
2023-05-15T06:09:37.482Z,43.08
2023-05-15T06:12:08.631Z,46.35
2023-05-15T06:14:36.186Z,77.18
2023-05-15T06:17:03.062Z,74.88
2023-05-15T06:19:30.358Z,65.63
2023-05-15T06:21:57.173Z,73.10
2023-05-15T06:24:23.771Z,46.70
2023-05-15T06:26:52.334Z,78.72
2023-05-15T06:29:19.274Z,87.18
2023-05-15T06:31:45.944Z,91.45
2023-05-15T06:34:12.765Z,60.50
2023-05-15T06:36:39.483Z,65.68
2023-05-15T06:39:06.165Z,91.68
2023-05-15T06:41:33.062Z,68.38
2023-05-15T06:43:59.813Z,48.80
2023-05-15T06:46:26.577Z,71.93
2023-05-15T06:48:53.222Z,94.45
2023-05-15T06:51:19.962Z,83.40
2023-05-15T06:53:46.643Z,71.05
2023-05-15T06:56:13.314Z,70.35
2023-05-15T06:58:39.929Z,84.78
2023-05-15T07:01:08.308Z,62.60
2023-05-15T07:03:35.052Z,86.35
2023-05-15T07:06:01.728Z,75.22
2023-05-15T07:08:28.449Z,72.18
2023-05-15T07:10:55.282Z,66.75
2023-05-15T07:13:22.088Z,73.75
2023-05-15T07:15:49.137Z,55.78
2023-05-15T07:18:16.027Z,64.10
2023-05-15T07:20:42.929Z,83.97
2023-05-15T07:23:09.773Z,91.15
2023-05-15T07:25:36.885Z,57.65
2023-05-15T07:28:03.752Z,56.58
2023-05-15T07:30:30.610Z,60.80
2023-05-15T07:32:57.626Z,52.63
2023-05-15T07:35:26.423Z,58.40
2023-05-15T07:37:53.419Z,68.43
2023-05-15T07:40:20.185Z,77.47
2023-05-15T07:42:47.206Z,59.72
2023-05-15T07:45:14.162Z,50.28
2023-05-15T07:47:48.354Z,57.95
2023-05-15T07:50:16.066Z,64.88
2023-05-15T07:52:43.220Z,51.03
2023-05-15T07:55:10.944Z,67.07
2023-05-15T07:57:37.793Z,56.20
2023-05-15T08:00:10.268Z,51.10
2023-05-15T08:02:37.199Z,53.60
2023-05-15T08:05:04.403Z,49.90
2023-05-15T08:07:31.848Z,45.38
2023-05-15T08:09:58.555Z,47.20
2023-05-15T08:12:26.293Z,38.17
2023-05-15T08:14:56.850Z,40.92
2023-05-15T08:17:25.207Z,36.35
2023-05-15T08:19:53.367Z,37.65
2023-05-15T08:22:20.250Z,39.20
2023-05-15T08:24:46.904Z,40.20
2023-05-15T08:27:13.653Z,38.35
2023-05-15T08:29:40.522Z,31.83
2023-05-15T08:32:09.133Z,35.30
2023-05-15T08:34:35.931Z,43.53
2023-05-15T08:37:02.656Z,33.67
2023-05-15T08:39:29.316Z,39.15
2023-05-15T08:42:11.163Z,36.47
2023-05-15T08:44:39.473Z,32.65
2023-05-15T08:47:06.893Z,29.95
2023-05-15T08:49:51.493Z,27.70
2023-05-15T08:52:18.202Z,27.25
2023-05-15T08:54:48.548Z,25.10
2023-05-15T08:57:17.134Z,26.77
2023-05-15T08:59:43.956Z,26.83
2023-05-15T09:02:11.032Z,28.65
2023-05-15T09:04:37.742Z,30.17
2023-05-15T09:07:05.576Z,30.20
2023-05-15T09:09:34.334Z,31.55
2023-05-15T09:12:03.920Z,28.52
2023-05-15T09:14:30.622Z,25.23
2023-05-15T09:16:57.378Z,35.85
2023-05-15T09:19:24.074Z,27.63
2023-05-15T09:21:50.803Z,31.70
2023-05-15T09:24:24.942Z,27.77
2023-05-15T09:27:06.353Z,26.92
2023-05-15T09:29:34.753Z,20.27
2023-05-15T09:32:08.499Z,14.45
2023-05-15T09:34:37.575Z,18.00
2023-05-15T09:37:06.768Z,12.73
2023-05-15T09:39:34.703Z,20.27
2023-05-15T09:42:12.530Z,11.43
2023-05-15T09:44:43.736Z,11.63
2023-05-15T09:47:12.212Z,8.50
2023-05-15T09:49:39.349Z,13.05
2023-05-15T09:52:10.799Z,11.70
2023-05-15T09:54:38.372Z,12.48
2023-05-15T09:57:10.659Z,14.02
2023-05-15T09:59:44.287Z,7.35
2023-05-15T10:02:14.195Z,11.02
2023-05-15T10:04:40.909Z,10.50
2023-05-15T10:07:09.226Z,13.75
2023-05-15T10:09:35.864Z,10.60
2023-05-15T10:12:02.928Z,9.20
2023-05-15T10:14:30.327Z,10.55
2023-05-15T10:16:57.418Z,8.80
2023-05-15T10:19:28.163Z,9.48
2023-05-15T10:21:57.246Z,8.23
2023-05-15T10:24:29.063Z,6.32
2023-05-15T10:26:56.948Z,10.63
2023-05-15T10:29:25.714Z,8.63
2023-05-15T10:31:52.706Z,8.13
2023-05-15T10:34:20.394Z,7.70
2023-05-15T10:36:50.321Z,9.35
2023-05-15T10:39:18.073Z,5.05
2023-05-15T10:41:45.945Z,8.52
2023-05-15T10:44:14.991Z,10.55
2023-05-15T10:46:41.939Z,5.63
2023-05-15T10:49:08.657Z,9.52
2023-05-15T10:51:39.629Z,9.18
2023-05-15T10:54:06.570Z,6.57
2023-05-15T10:56:34.154Z,8.57
2023-05-15T10:59:09.388Z,7.25
2023-05-15T11:01:38.695Z,7.75
2023-05-15T11:04:17.352Z,9.23
2023-05-15T11:06:46.178Z,9.02
2023-05-15T11:09:22.262Z,6.20
2023-05-15T11:11:52.812Z,6.63
2023-05-15T11:14:19.879Z,8.27
2023-05-15T11:16:52.751Z,12.50
2023-05-15T11:19:24.826Z,9.27
2023-05-15T11:22:04.213Z,8.95
2023-05-15T11:24:33.156Z,8.85
2023-05-15T11:27:04.896Z,6.03
2023-05-15T11:29:35.205Z,5.85
2023-05-15T11:32:01.890Z,7.40
2023-05-15T11:34:35.132Z,6.47
2023-05-15T11:37:01.920Z,6.72
2023-05-15T11:39:28.707Z,8.90
2023-05-15T11:41:55.579Z,10.63
2023-05-15T11:44:23.813Z,6.75
2023-05-15T11:46:51.553Z,4.03
2023-05-15T11:49:19.792Z,5.57
2023-05-15T11:51:48.700Z,5.35
2023-05-15T11:54:15.562Z,7.05
2023-05-15T11:56:44.645Z,6.55
2023-05-15T11:59:17.370Z,5.03
2023-05-15T12:01:47.812Z,5.53
2023-05-15T12:04:16.568Z,7.53
2023-05-15T12:06:44.876Z,10.80
2023-05-15T12:09:19.584Z,6.72
2023-05-15T12:11:53.698Z,9.88
2023-05-15T12:14:30.706Z,5.35
2023-05-15T12:17:04.712Z,10.35
2023-05-15T12:19:32.017Z,9.20
2023-05-15T12:21:58.942Z,6.35
2023-05-15T12:24:26.988Z,7.60
2023-05-15T12:26:56.619Z,6.80
2023-05-15T12:29:24.258Z,7.28
2023-05-15T12:31:54.205Z,10.23
2023-05-15T12:34:21.887Z,12.05
2023-05-15T12:36:48.658Z,5.97
2023-05-15T12:39:15.404Z,9.52
2023-05-15T12:41:42.081Z,10.18
2023-05-15T12:44:17.272Z,10.00
2023-05-15T12:46:44.032Z,7.80
2023-05-15T12:49:11.869Z,8.07
2023-05-15T12:51:45.166Z,9.52
2023-05-15T12:54:19.334Z,11.23
2023-05-15T12:56:47.903Z,7.18
2023-05-15T12:59:14.642Z,7.43
2023-05-15T13:01:44.778Z,5.90
2023-05-15T13:04:11.866Z,4.15
2023-05-15T13:06:46.408Z,6.15
2023-05-15T13:09:14.209Z,10.48
2023-05-15T13:11:45.408Z,5.85
2023-05-15T13:14:17.522Z,6.72
2023-05-15T13:16:46.853Z,4.70
2023-05-15T13:19:13.824Z,5.38
2023-05-15T13:21:40.583Z,9.60
2023-05-15T13:24:09.940Z,9.35
2023-05-15T13:26:36.784Z,7.55
2023-05-15T13:29:04.035Z,7.78
2023-05-15T13:31:30.998Z,6.88
2023-05-15T13:33:57.672Z,4.80
2023-05-15T13:36:24.309Z,6.78
2023-05-15T13:38:50.965Z,6.47
2023-05-15T13:41:17.880Z,12.05
2023-05-15T13:43:44.574Z,5.55
2023-05-15T13:46:14.384Z,4.30
2023-05-15T13:48:41.123Z,13.48
2023-05-15T13:51:07.770Z,6.70
2023-05-15T13:53:34.422Z,8.32
2023-05-15T13:56:01.142Z,6.90
2023-05-15T13:58:28.231Z,8.77
2023-05-15T14:00:54.931Z,5.45
2023-05-15T14:03:21.707Z,8.43
2023-05-15T14:05:48.400Z,8.57
2023-05-15T14:08:16.031Z,6.55
2023-05-15T14:10:43.672Z,7.28
2023-05-15T14:13:10.435Z,6.88
2023-05-15T14:15:37.084Z,3.95
2023-05-15T14:18:03.780Z,8.35
2023-05-15T14:20:30.524Z,6.72
2023-05-15T14:22:57.145Z,9.07
2023-05-15T14:25:24.592Z,5.50
2023-05-15T14:27:51.300Z,7.38
2023-05-15T14:30:18.472Z,4.78
2023-05-15T14:32:45.229Z,8.40
2023-05-15T14:35:11.876Z,6.70
2023-05-15T14:37:38.626Z,6.75
2023-05-15T14:40:06.987Z,6.82
2023-05-15T14:42:33.748Z,10.88
2023-05-15T14:45:00.367Z,4.30
2023-05-15T14:47:28.562Z,7.07
2023-05-15T14:49:55.630Z,9.32
2023-05-15T14:52:22.529Z,8.50
2023-05-15T14:55:00.761Z,8.30
2023-05-15T14:57:35.147Z,7.03
2023-05-15T15:00:01.952Z,9.95
2023-05-15T15:02:28.622Z,5.80
2023-05-15T15:04:55.456Z,5.75
2023-05-15T15:07:22.074Z,6.68
2023-05-15T15:09:48.830Z,4.75
2023-05-15T15:12:15.620Z,5.70
2023-05-15T15:14:42.245Z,8.25
2023-05-15T15:17:08.824Z,6.45
2023-05-15T15:19:35.423Z,5.28
2023-05-15T15:22:05.684Z,5.57
2023-05-15T15:24:32.458Z,6.75
2023-05-15T15:26:59.072Z,9.90
2023-05-15T15:29:25.787Z,6.53
2023-05-15T15:31:52.467Z,9.85
2023-05-15T15:34:19.167Z,8.27
2023-05-15T15:36:45.813Z,10.07
2023-05-15T15:39:13.180Z,10.23
2023-05-15T15:41:39.973Z,6.72
2023-05-15T15:44:06.656Z,11.75
2023-05-15T15:46:33.463Z,5.88
2023-05-15T15:49:00.324Z,8.10
2023-05-15T15:51:27.254Z,7.68
2023-05-15T15:53:54.094Z,8.27
2023-05-15T15:56:21.388Z,7.88
2023-05-15T15:58:48.090Z,7.22
2023-05-15T16:01:15.005Z,9.93
2023-05-15T16:03:41.739Z,7.95
2023-05-15T16:06:08.446Z,5.53
2023-05-15T16:08:35.017Z,10.52
2023-05-15T16:11:01.824Z,6.38
2023-05-15T16:13:28.503Z,6.47
2023-05-15T16:15:55.165Z,12.20
2023-05-15T16:18:22.250Z,12.65
2023-05-15T16:20:49.049Z,7.65
2023-05-15T16:23:16.465Z,5.32
2023-05-15T16:25:45.756Z,10.18
2023-05-15T16:28:12.759Z,12.55
2023-05-15T16:30:48.926Z,8.75
2023-05-15T16:33:18.158Z,7.78
2023-05-15T16:35:45.619Z,6.25
2023-05-15T16:38:12.264Z,9.98
2023-05-15T16:40:39.270Z,7.28
2023-05-15T16:43:06.308Z,12.90
2023-05-15T16:45:32.964Z,6.53
2023-05-15T16:47:59.698Z,7.57
2023-05-15T16:50:26.790Z,14.98
2023-05-15T16:52:53.727Z,8.80
2023-05-15T16:55:20.459Z,11.27
2023-05-15T16:57:47.329Z,9.73
2023-05-15T17:00:15.914Z,12.40
2023-05-15T17:02:43.416Z,7.65
2023-05-15T17:05:11.316Z,8.98
2023-05-15T17:07:38.760Z,10.77
2023-05-15T17:10:06.855Z,10.13
2023-05-15T17:12:34.094Z,8.93
2023-05-15T17:15:01.016Z,10.00
2023-05-15T17:17:27.990Z,8.70
2023-05-15T17:19:55.903Z,9.45
2023-05-15T17:22:23.061Z,6.15
2023-05-15T17:24:52.221Z,15.63
2023-05-15T17:27:19.483Z,11.85
2023-05-15T17:29:47.028Z,10.02
2023-05-15T17:32:14.006Z,9.73
2023-05-15T17:34:40.723Z,11.32
2023-05-15T17:37:08.053Z,10.98
2023-05-15T17:39:34.934Z,9.68
2023-05-15T17:42:03.433Z,8.07
2023-05-15T17:44:31.160Z,11.00
2023-05-15T17:46:58.848Z,6.75
2023-05-15T17:49:26.477Z,8.73
2023-05-15T17:51:54.020Z,11.75
2023-05-15T17:54:20.820Z,6.03
2023-05-15T17:56:48.575Z,7.82
2023-05-15T17:59:15.610Z,9.00
2023-05-15T18:01:42.628Z,12.30
2023-05-15T18:04:09.447Z,8.57
2023-05-15T18:06:36.194Z,7.78
2023-05-15T18:09:03.410Z,7.65
2023-05-15T18:11:30.015Z,6.00
2023-05-15T18:13:56.920Z,11.70
2023-05-15T18:16:23.824Z,7.38
2023-05-15T18:18:52.193Z,6.38
2023-05-15T18:21:19.272Z,6.55
2023-05-15T18:23:46.146Z,7.18
2023-05-15T18:26:12.917Z,5.20
2023-05-15T18:28:39.663Z,6.40
2023-05-15T18:31:06.596Z,6.55
2023-05-15T18:33:34.365Z,6.60
2023-05-15T18:36:01.344Z,11.00
2023-05-15T18:38:28.547Z,7.63
2023-05-15T18:40:55.239Z,11.32
2023-05-15T18:43:22.087Z,7.63
2023-05-15T18:45:48.885Z,11.90
2023-05-15T18:48:15.771Z,9.60
2023-05-15T18:50:42.626Z,7.40
2023-05-15T18:53:09.280Z,11.98
2023-05-15T18:55:35.929Z,4.78
2023-05-15T18:58:02.523Z,8.70
2023-05-15T19:00:37.949Z,8.13
2023-05-15T19:03:06.018Z,6.28
2023-05-15T19:05:34.272Z,8.38
2023-05-15T19:08:01.542Z,8.48
2023-05-15T19:10:29.498Z,15.98
2023-05-15T19:12:57.520Z,9.75
2023-05-15T19:15:25.481Z,6.95
2023-05-15T19:17:52.337Z,6.75
2023-05-15T19:20:19.818Z,10.55
2023-05-15T19:22:46.818Z,4.63
2023-05-15T19:25:13.578Z,3.95
2023-05-15T19:27:40.437Z,6.75
2023-05-15T19:30:07.905Z,9.05
2023-05-15T19:32:34.889Z,7.20
2023-05-15T19:35:02.082Z,6.45
2023-05-15T19:37:29.086Z,9.68
2023-05-15T19:39:56.748Z,6.97
2023-05-15T19:42:23.429Z,5.57
2023-05-15T19:44:50.183Z,7.53
2023-05-15T19:47:16.962Z,6.40
2023-05-15T19:49:43.780Z,5.65
2023-05-15T19:52:10.530Z,6.55
2023-05-15T19:54:37.297Z,7.47
2023-05-15T19:57:04.264Z,8.55
2023-05-15T19:59:31.001Z,6.13
2023-05-15T20:01:57.811Z,12.93
2023-05-15T20:04:24.504Z,6.00
2023-05-15T20:06:51.291Z,5.90
2023-05-15T20:09:17.880Z,8.77
2023-05-15T20:11:45.357Z,10.07
2023-05-15T20:14:12.094Z,5.70
2023-05-15T20:16:38.781Z,4.80
2023-05-15T20:19:06.051Z,8.38
2023-05-15T20:21:33.020Z,12.18
2023-05-15T20:23:59.758Z,9.18
2023-05-15T20:26:26.429Z,8.35
2023-05-15T20:28:53.113Z,5.78
2023-05-15T20:31:19.798Z,7.88
2023-05-15T20:33:46.682Z,7.25
2023-05-15T20:36:14.251Z,6.05
2023-05-15T20:38:41.396Z,9.10
2023-05-15T20:41:08.214Z,5.78
2023-05-15T20:43:34.887Z,9.77
2023-05-15T20:46:01.577Z,4.32
2023-05-15T20:48:28.298Z,8.50
2023-05-15T20:50:56.076Z,5.25
2023-05-15T20:53:23.042Z,5.65
2023-05-15T20:55:49.847Z,7.97
2023-05-15T20:58:16.570Z,9.13
2023-05-15T21:00:43.381Z,8.60
2023-05-15T21:03:11.831Z,8.25
2023-05-15T21:05:38.485Z,7.65
2023-05-15T21:08:05.791Z,11.85
2023-05-15T21:10:32.540Z,8.23
2023-05-15T21:12:59.763Z,8.30
2023-05-15T21:15:26.670Z,8.25
2023-05-15T21:17:53.479Z,8.55
2023-05-15T21:20:20.176Z,4.45
2023-05-15T21:22:46.965Z,3.95
2023-05-15T21:25:13.772Z,7.10
2023-05-15T21:27:42.224Z,4.82
2023-05-15T21:30:09.606Z,9.82
2023-05-15T21:32:36.687Z,3.55
2023-05-15T21:35:03.702Z,10.00
2023-05-15T21:37:31.144Z,5.32
2023-05-15T21:39:57.948Z,7.68
2023-05-15T21:42:24.598Z,8.90
2023-05-15T21:44:51.362Z,10.00
2023-05-15T21:47:18.130Z,3.95
2023-05-15T21:49:44.853Z,7.68
2023-05-15T21:52:11.579Z,7.38
2023-05-15T21:54:38.292Z,10.43
2023-05-15T21:57:05.341Z,9.23
2023-05-15T21:59:32.336Z,6.65
2023-05-15T22:01:59.170Z,8.07
2023-05-15T22:04:25.922Z,6.30
2023-05-15T22:06:52.572Z,8.23
2023-05-15T22:09:19.393Z,7.95
2023-05-15T22:11:46.316Z,7.82
2023-05-15T22:14:13.134Z,7.75
2023-05-15T22:16:40.001Z,6.05
2023-05-15T22:19:06.956Z,6.03
2023-05-15T22:21:34.162Z,7.28
2023-05-15T22:24:04.308Z,8.80
2023-05-15T22:26:33.273Z,6.88
2023-05-15T22:29:00.127Z,9.35
2023-05-15T22:31:27.416Z,6.18
2023-05-15T22:33:54.223Z,5.22
2023-05-15T22:36:21.399Z,11.82
2023-05-15T22:38:48.398Z,5.78
2023-05-15T22:41:15.311Z,7.43
2023-05-15T22:43:42.344Z,7.70
2023-05-15T22:46:09.251Z,7.95
2023-05-15T22:48:37.131Z,7.40
2023-05-15T22:51:05.152Z,7.63
2023-05-15T22:53:32.093Z,4.35
2023-05-15T22:55:58.729Z,5.60
2023-05-15T22:58:25.467Z,4.05
2023-05-15T23:00:52.324Z,3.85
2023-05-15T23:03:19.280Z,6.50
2023-05-15T23:05:46.512Z,7.60
2023-05-15T23:08:13.378Z,9.90
2023-05-15T23:10:40.146Z,10.07
2023-05-15T23:13:07.024Z,4.88
2023-05-15T23:15:33.882Z,5.93
2023-05-15T23:18:00.951Z,6.80
2023-05-15T23:20:28.032Z,6.85
2023-05-15T23:22:55.135Z,5.22
2023-05-15T23:25:22.223Z,5.88
2023-05-15T23:27:49.475Z,9.23
2023-05-15T23:30:16.516Z,5.68
2023-05-15T23:32:43.436Z,7.93
2023-05-15T23:35:10.431Z,3.78
2023-05-15T23:37:37.286Z,6.90
2023-05-15T23:40:05.534Z,6.90
2023-05-15T23:42:32.305Z,6.10
2023-05-15T23:44:59.169Z,6.32
2023-05-15T23:47:26.088Z,6.47
2023-05-15T23:49:52.866Z,7.60
2023-05-15T23:52:19.586Z,5.45
2023-05-15T23:54:46.698Z,4.78
2023-05-15T23:57:13.554Z,4.65
2023-05-15T23:59:40.495Z,7.10
